首页
METAR-TAF:

METAR-TAF

机场 :

Valdosta Regional Airport

Valdosta, 喬治亞, 美国

纬度: 30-47N, 经度: 083-17W, 海拔: 62米

当前天气观测

该预报发布于1小时和3分钟前的21:53 UTC
风速11节,风向,有时为16节阵风,在东北东转东南之间变化
温度 13°C
湿度 88%
气压 1018 hPa
能見度: 16.1公里
阴天层高于800英尺

METAR: KVLD 022153Z 09011G16KT 050V110 10SM OVC008 13/11 A3005 RMK AO2 SLP185 T01280106

时间: 17:56 (22:56 UTC)

预报

该预报发布于5小时和30分钟前的17:26 UTC
预报有效从02日的 18点(UTC)到 03日的 18点(UTC)
风速10节,风向北转东北
能見度: 4.8公里
阴天层高于800英尺
小阵雨
短暂存在
从 02日的 20点(UTC)到 02日的 24点(UTC)
能見度: 10公里
多云层高于1600英尺
从 03日的 0200点(UTC)
风速8节,风向
能見度: 3.2公里
阴天层高于600英尺
小雨, 轻雾
短暂存在
从 03日的 03点(UTC)到 03日的 07点(UTC)
能見度: 1.6公里
阴天层高于500英尺
阵雨
从 03日的 0900点(UTC)
风速12节,风向
能見度: 10公里
阴天层高于1000英尺

TAF: KVLD 021726Z 0218/0318 03010KT 3SM -SHRA OVC008 TEMPO 0220/0224 P6SM NSW BKN016 FM030200 09008KT 2SM -RA BR OVC006 TEMPO 0303/0307 1SM SHRA OVC005 FM030900 36012KT P6SM OVC010

超过4000个机场的气象观测和天气预报(METAR&TAF报告)。

可查询的气象台以黄色和红色小点在地图上表示。

将鼠标移到小点上方,可查看气象台名称。

然后点击查看天气观测和预报。

如需切换地图:点击带黑十字的绿色按钮放大地图;点击带横线的绿色按钮缩小地图;或者点击绿色箭头查看邻近地区的地图。


METAR-TAF: